Time;durP1;ratioP1;P1;durP2;ratioP2;P2;SDS_P1;SDS_P2;PMS_P1;PMS_P2;Temp;Humidity;BMP_temperature;BMP_pressure;BME280_temperature;BME280_humidity;BME280_pressure;Samples;Min_cycle;Max_cycle;Signal;HPM_P1;HPM_P2
2023/12/12 00:00:24;;;;;;;6.15;2.03;;;;;;;9.22;71.27;98954.06;4994489;28;100086;-79
2023/12/12 00:02:50;;;;;;;4.82;2.17;;;;;;;9.24;71.22;98950.44;4979013;28;97155;-79
2023/12/12 00:05:15;;;;;;;9.02;2.58;;;;;;;9.15;70.44;98940.44;4996932;28;96934;-79
2023/12/12 00:07:41;;;;;;;7.45;2.13;;;;;;;9.29;70.55;98955.47;4995097;28;98064;-77
2023/12/12 00:10:07;;;;;;;6.85;1.90;;;;;;;9.27;70.45;98958.16;4980603;28;100754;-78
2023/12/12 00:12:33;;;;;;;4.25;1.73;;;;;;;9.34;70.26;98968.31;4965296;28;96947;-77
2023/12/12 00:14:58;;;;;;;5.32;1.80;;;;;;;9.24;69.65;98963.53;4982334;28;96808;-77
2023/12/12 00:17:24;;;;;;;4.53;1.95;;;;;;;9.19;69.33;98948.97;4980700;28;98088;-77
2023/12/12 00:19:49;;;;;;;2.92;1.50;;;;;;;9.22;69.67;98975.88;4981445;28;101569;-77
2023/12/12 00:22:15;;;;;;;5.03;1.42;;;;;;;9.06;69.30;98970.53;4998179;28;97015;-77
2023/12/12 00:24:40;;;;;;;3.10;1.42;;;;;;;8.97;68.96;98965.75;4979976;28;97873;-77
2023/12/12 00:27:06;;;;;;;3.67;1.33;;;;;;;9.00;69.45;98981.31;4996847;28;97965;-77
2023/12/12 00:29:35;;;;;;;3.13;1.38;;;;;;;9.08;69.44;98986.19;5004733;28;97604;-77
2023/12/12 00:32:02;;;;;;;7.50;1.23;;;;;;;9.09;69.44;98993.09;5006786;28;96779;-77
2023/12/12 00:34:28;;;;;;;4.45;2.10;;;;;;;9.12;69.08;98997.34;4978653;28;97127;-77
2023/12/12 00:36:53;;;;;;;3.50;1.33;;;;;;;9.21;68.96;99002.97;4997721;28;97621;-77
2023/12/12 00:39:19;;;;;;;7.40;1.80;;;;;;;9.03;69.15;98990.78;4974410;28;101417;-77
2023/12/12 00:41:44;;;;;;;2.30;1.00;;;;;;;9.21;69.02;99013.44;4997239;28;97154;-77
2023/12/12 00:44:10;;;;;;;3.25;1.20;;;;;;;9.23;68.83;99023.84;4980039;28;97146;-77
2023/12/12 00:46:35;;;;;;;7.22;1.80;;;;;;;9.28;68.28;99016.63;5014370;28;97524;-78
2023/12/12 00:49:01;;;;;;;3.35;1.63;;;;;;;9.21;68.41;99023.91;4980566;28;97433;-78
2023/12/12 00:51:26;;;;;;;2.47;1.20;;;;;;;9.12;68.22;99024.38;4981826;28;97121;-78
2023/12/12 00:53:52;;;;;;;3.67;1.60;;;;;;;9.10;68.65;99023.59;4965395;28;97130;-77
2023/12/12 00:56:17;;;;;;;2.63;1.50;;;;;;;9.11;68.34;99022.69;4993133;28;100896;-78
2023/12/12 00:58:43;;;;;;;3.72;1.42;;;;;;;8.99;68.13;99013.66;5012247;28;97977;-77
2023/12/12 01:01:08;;;;;;;1.40;0.98;;;;;;;9.04;68.67;99035.19;4996419;28;96822;-77
2023/12/12 01:03:33;;;;;;;1.88;1.08;;;;;;;8.94;68.20;99010.41;4980831;28;96925;-77
2023/12/12 01:05:59;;;;;;;4.68;1.38;;;;;;;9.05;68.72;99044.78;4996836;28;98247;-77
2023/12/12 01:08:24;;;;;;;2.47;1.30;;;;;;;9.02;68.92;99050.16;4989151;28;102302;-77
2023/12/12 01:10:50;;;;;;;2.08;1.05;;;;;;;9.18;68.72;99028.47;4963551;28;96903;-77
2023/12/12 01:13:15;;;;;;;3.42;1.13;;;;;;;9.09;68.56;99021.91;4998129;28;96862;-77
2023/12/12 01:15:41;;;;;;;2.00;1.30;;;;;;;9.16;69.20;99033.78;4979643;28;100943;-77
2023/12/12 01:18:06;;;;;;;2.97;1.23;;;;;;;9.18;68.44;99041.56;4996273;28;101156;-78
2023/12/12 01:20:32;;;;;;;4.35;1.38;;;;;;;9.09;68.49;99047.25;5010489;28;97319;-77
2023/12/12 01:22:57;;;;;;;4.55;1.67;;;;;;;9.22;68.03;99048.31;4980682;28;97541;-77
2023/12/12 01:25:23;;;;;;;3.38;0.85;;;;;;;9.20;67.98;99047.56;5009802;28;97906;-79
2023/12/12 01:27:48;;;;;;;3.05;1.10;;;;;;;9.11;68.62;99050.63;4978357;28;97300;-77
2023/12/12 01:30:14;;;;;;;2.30;1.20;;;;;;;9.20;68.21;99064.13;4994263;28;97314;-77
2023/12/12 01:32:39;;;;;;;4.30;1.35;;;;;;;9.05;67.96;99049.16;4993714;28;96832;-77
2023/12/12 01:35:05;;;;;;;4.57;1.02;;;;;;;9.04;68.42;99061.38;4996279;28;97467;-77
2023/12/12 01:37:31;;;;;;;3.55;1.30;;;;;;;9.07;67.68;99057.75;4994887;28;98651;-77
2023/12/12 01:39:56;;;;;;;3.75;1.35;;;;;;;9.15;67.84;99062.66;5013126;28;96702;-77
2023/12/12 01:42:22;;;;;;;5.50;1.17;;;;;;;9.16;67.85;99075.69;5012464;28;97104;-77
2023/12/12 01:44:47;;;;;;;1.98;1.10;;;;;;;8.97;67.53;99043.44;4996739;28;97992;-77
2023/12/12 01:47:13;;;;;;;3.22;0.90;;;;;;;9.09;67.32;99071.63;4995595;28;98479;-79
2023/12/12 01:49:39;;;;;;;1.35;0.80;;;;;;;8.93;67.63;99054.97;4979038;28;97088;-77
2023/12/12 01:52:05;;;;;;;3.90;1.05;;;;;;;8.99;67.30;99078.25;4979712;28;97221;-79
2023/12/12 01:54:31;;;;;;;2.47;0.93;;;;;;;8.90;67.46;99076.03;5010057;28;97382;-81
2023/12/12 01:56:56;;;;;;;1.50;0.80;;;;;;;9.01;68.38;99087.69;4995865;28;97290;-80
2023/12/12 01:59:22;;;;;;;1.20;0.88;;;;;;;8.96;68.62;99075.75;4996447;28;98225;-79
2023/12/12 02:01:51;;;;;;;4.60;1.05;;;;;;;8.91;68.68;99089.06;4979338;28;96983;-80
2023/12/12 02:04:17;;;;;;;6.15;1.55;;;;;;;8.90;69.28;99086.50;4995812;28;97705;-80
2023/12/12 02:06:44;;;;;;;1.42;0.80;;;;;;;8.89;69.25;99084.81;4979566;28;100821;-79
2023/12/12 02:09:10;;;;;;;1.70;0.90;;;;;;;8.85;68.35;99089.34;4992573;28;97093;-80
2023/12/12 02:11:36;;;;;;;2.05;0.80;;;;;;;8.91;68.75;99090.84;4979606;28;96946;-79
2023/12/12 02:14:01;;;;;;;1.95;0.88;;;;;;;8.94;67.98;99096.78;4996228;28;98072;-79
2023/12/12 02:16:27;;;;;;;2.13;0.90;;;;;;;8.88;68.16;99096.22;4962483;28;101548;-81
2023/12/12 02:18:52;;;;;;;7.03;2.83;;;;;;;8.81;68.27;99099.13;4976596;28;97341;-80
2023/12/12 02:21:21;;;;;;;2.90;1.35;;;;;;;8.81;67.84;99079.94;5011608;28;97156;-80
2023/12/12 02:23:47;;;;;;;3.15;1.48;;;;;;;8.87;67.76;99102.34;4993363;28;101734;-80
2023/12/12 02:26:13;;;;;;;4.72;1.83;;;;;;;8.98;67.45;99102.72;4993556;28;97962;-80
2023/12/12 02:28:40;;;;;;;3.92;1.00;;;;;;;8.89;66.94;99105.75;4989989;28;97224;-78
2023/12/12 02:31:05;;;;;;;5.00;1.40;;;;;;;8.96;66.97;99110.66;4985256;28;97109;-77
2023/12/12 02:33:31;;;;;;;3.33;1.40;;;;;;;8.98;67.16;99103.53;4977296;28;101235;-77
2023/12/12 02:35:56;;;;;;;2.75;1.20;;;;;;;8.90;67.23;99095.22;4993900;28;100948;-78
2023/12/12 02:38:22;;;;;;;4.00;1.50;;;;;;;8.98;67.10;99118.41;5012486;28;96826;-77
2023/12/12 02:40:47;;;;;;;2.92;1.20;;;;;;;8.96;67.12;99125.47;4980706;28;97298;-77
2023/12/12 02:43:12;;;;;;;2.75;1.27;;;;;;;8.97;67.09;99124.56;5011725;28;97444;-77
2023/12/12 02:45:38;;;;;;;2.13;1.13;;;;;;;8.87;67.03;99115.44;4995369;28;97437;-77
2023/12/12 02:48:04;;;;;;;8.25;1.80;;;;;;;8.83;67.26;99120.81;4977600;28;97122;-78
2023/12/12 02:50:29;;;;;;;2.58;1.23;;;;;;;9.01;66.82;99129.59;4978670;28;96838;-77
2023/12/12 02:52:55;;;;;;;4.32;1.38;;;;;;;8.80;66.75;99118.34;4979094;28;101497;-77
2023/12/12 02:55:20;;;;;;;5.95;2.15;;;;;;;8.98;66.67;99141.97;4962159;28;101418;-77
2023/12/12 02:57:46;;;;;;;4.63;1.27;;;;;;;8.84;66.72;99140.84;5011819;28;96726;-77
2023/12/12 03:00:11;;;;;;;3.20;1.23;;;;;;;8.93;66.54;99141.31;4985844;28;96965;-77
2023/12/12 03:02:37;;;;;;;5.13;1.38;;;;;;;8.90;66.45;99151.94;4994449;28;101023;-78
2023/12/12 03:05:04;;;;;;;5.25;2.75;;;;;;;8.93;66.77;99141.31;4993508;28;98361;-77
2023/12/12 03:07:30;;;;;;;4.40;1.48;;;;;;;8.98;66.61;99152.44;5011533;28;96847;-77
2023/12/12 03:09:55;;;;;;;3.10;1.48;;;;;;;8.97;66.88;99156.81;4992490;28;97136;-77
2023/12/12 03:12:21;;;;;;;5.45;1.55;;;;;;;9.03;66.61;99158.31;4977962;28;97483;-78
2023/12/12 03:14:46;;;;;;;3.28;1.35;;;;;;;9.02;65.94;99162.72;4992757;28;97448;-77
2023/12/12 03:17:12;;;;;;;2.30;1.10;;;;;;;8.96;66.00;99139.44;5011004;28;96935;-77
2023/12/12 03:19:37;;;;;;;2.67;1.40;;;;;;;9.11;65.72;99176.31;4977968;28;97628;-77
2023/12/12 03:22:03;;;;;;;5.35;1.10;;;;;;;9.07;65.66;99170.34;4977532;28;100785;-77
2023/12/12 03:24:28;;;;;;;2.33;1.38;;;;;;;9.25;65.58;99171.25;4978470;28;101180;-78
2023/12/12 03:26:54;;;;;;;3.58;1.13;;;;;;;9.35;65.71;99183.00;4993028;28;96945;-77
2023/12/12 03:29:19;;;;;;;2.03;1.10;;;;;;;9.24;65.43;99186.09;4993861;28;97145;-80
2023/12/12 03:31:45;;;;;;;2.28;1.02;;;;;;;9.11;65.56;99164.06;4994885;28;97297;-77
2023/12/12 03:34:10;;;;;;;4.60;1.10;;;;;;;9.14;65.75;99170.91;4994627;28;97834;-77
2023/12/12 03:36:41;;;;;;;1.73;1.42;;;;;;;9.30;65.63;99190.22;4983055;28;97920;-77
2023/12/12 03:39:06;;;;;;;2.75;1.58;;;;;;;9.24;66.39;99196.59;4994621;28;96908;-77
2023/12/12 03:41:32;;;;;;;4.45;1.10;;;;;;;9.21;66.41;99188.03;4998704;28;97619;-80
2023/12/12 03:43:57;;;;;;;4.32;1.35;;;;;;;9.04;66.02;99176.56;4980660;28;101249;-77
2023/12/12 03:46:23;;;;;;;2.05;1.08;;;;;;;9.12;66.47;99197.16;4965168;28;97381;-79
2023/12/12 03:48:48;;;;;;;4.35;1.25;;;;;;;9.19;66.56;99192.47;5012446;28;97447;-77
2023/12/12 03:51:14;;;;;;;3.88;1.50;;;;;;;9.14;65.57;99171.75;4996768;28;97854;-77
2023/12/12 03:53:39;;;;;;;3.33;1.40;;;;;;;9.12;65.22;99175.38;4981520;28;101092;-78
2023/12/12 03:56:06;;;;;;;4.88;1.38;;;;;;;9.13;65.87;99193.59;4980633;28;97068;-77
2023/12/12 03:58:32;;;;;;;3.60;1.63;;;;;;;9.06;66.08;99179.13;4998351;28;97142;-78
2023/12/12 04:00:57;;;;;;;3.42;1.27;;;;;;;9.17;65.63;99199.59;5012652;28;97434;-77
2023/12/12 04:03:23;;;;;;;2.83;1.13;;;;;;;9.06;65.73;99184.34;4997242;28;101519;-78
2023/12/12 04:05:48;;;;;;;2.97;1.33;;;;;;;9.21;66.11;99212.44;5013188;28;96712;-77
2023/12/12 04:08:14;;;;;;;3.80;1.95;;;;;;;9.11;65.60;99210.34;5011089;28;97260;-77
2023/12/12 04:10:40;;;;;;;2.47;1.10;;;;;;;9.13;65.22;99191.00;4996708;28;97258;-78
2023/12/12 04:13:05;;;;;;;3.08;1.20;;;;;;;9.25;64.93;99206.16;4961907;28;101298;-78
2023/12/12 04:15:31;;;;;;;3.88;1.13;;;;;;;9.10;65.44;99204.22;4990944;28;96702;-78
2023/12/12 04:17:56;;;;;;;2.80;1.00;;;;;;;9.10;65.18;99206.00;4980957;28;97009;-77
2023/12/12 04:20:22;;;;;;;6.35;1.17;;;;;;;9.15;65.34;99215.34;4981087;28;97597;-77
2023/12/12 04:22:47;;;;;;;2.13;0.95;;;;;;;8.86;65.53;99195.72;4997500;28;98102;-78
2023/12/12 04:25:13;;;;;;;6.28;1.23;;;;;;;8.87;65.79;99223.56;4990857;28;97256;-78
2023/12/12 04:27:39;;;;;;;3.20;1.30;;;;;;;8.90;66.58;99227.81;4980762;28;96843;-77
2023/12/12 04:30:05;;;;;;;4.60;1.52;;;;;;;8.98;65.92;99223.09;4997732;28;97604;-78
2023/12/12 04:32:31;;;;;;;5.80;1.38;;;;;;;8.89;66.34;99236.59;4997093;28;98020;-77
2023/12/12 04:34:57;;;;;;;3.53;1.60;;;;;;;8.95;66.48;99250.25;4981300;28;96777;-77
2023/12/12 04:37:23;;;;;;;3.85;1.10;;;;;;;8.88;66.17;99225.28;4981311;28;98061;-78
2023/12/12 04:39:48;;;;;;;5.43;1.52;;;;;;;8.96;67.14;99246.75;4992281;28;97432;-80
2023/12/12 04:42:15;;;;;;;3.72;2.13;;;;;;;9.06;66.99;99255.88;4976532;28;97863;-79
2023/12/12 04:44:43;;;;;;;4.10;1.80;;;;;;;8.93;66.87;99244.28;4981540;28;96825;-78
2023/12/12 04:47:09;;;;;;;3.22;1.42;;;;;;;8.92;67.38;99257.41;4979190;28;98056;-78
2023/12/12 04:49:35;;;;;;;3.08;1.88;;;;;;;8.83;67.92;99251.66;4992891;28;97501;-78
2023/12/12 04:52:01;;;;;;;4.03;1.90;;;;;;;8.83;67.89;99243.81;5014168;28;97600;-77
2023/12/12 04:54:27;;;;;;;3.83;1.58;;;;;;;8.90;68.17;99259.22;4980549;28;97143;-77
2023/12/12 04:56:52;;;;;;;4.95;1.92;;;;;;;8.78;68.05;99263.25;4999966;28;97385;-77
2023/12/12 04:59:18;;;;;;;4.50;2.13;;;;;;;8.91;68.18;99266.19;4995815;28;97786;-76
2023/12/12 05:01:44;;;;;;;7.15;2.53;;;;;;;8.90;68.07;99275.81;4996820;28;97421;-79
2023/12/12 05:04:09;;;;;;;4.65;1.80;;;;;;;8.94;67.90;99268.66;4998173;28;96957;-78
2023/12/12 05:06:35;;;;;;;5.20;2.25;;;;;;;8.90;67.81;99274.94;4996778;28;97056;-77
2023/12/12 05:09:00;;;;;;;2.25;1.17;;;;;;;8.80;67.95;99275.34;4978982;28;100580;-77
2023/12/12 05:11:26;;;;;;;6.07;1.30;;;;;;;8.65;67.80;99239.38;4979766;28;97445;-77
2023/12/12 05:13:51;;;;;;;3.97;1.80;;;;;;;8.76;67.71;99275.56;4970726;28;96809;-78
2023/12/12 05:16:17;;;;;;;2.60;1.30;;;;;;;8.57;68.26;99246.72;4976362;28;96771;-78
2023/12/12 05:18:42;;;;;;;8.05;1.70;;;;;;;8.72;68.22;99274.81;4979260;28;97963;-78
2023/12/12 05:21:08;;;;;;;2.55;1.60;;;;;;;8.75;68.00;99279.06;4980101;28;97416;-78
2023/12/12 05:23:33;;;;;;;2.83;1.60;;;;;;;8.70;68.55;99266.22;4998097;28;96734;-78
2023/12/12 05:25:59;;;;;;;4.05;1.85;;;;;;;8.72;68.46;99269.59;4995880;28;97003;-80
2023/12/12 05:28:24;;;;;;;6.28;2.08;;;;;;;8.71;68.41;99261.81;4997010;28;97847;-81
2023/12/12 05:30:50;;;;;;;5.03;2.35;;;;;;;8.62;68.73;99260.44;4980213;28;97335;-79
2023/12/12 05:33:15;;;;;;;6.78;2.28;;;;;;;8.80;68.54;99288.44;4994026;28;96751;-82
2023/12/12 05:35:41;;;;;;;7.90;3.72;;;;;;;8.91;68.13;99287.97;4990703;28;96953;-81
2023/12/12 05:38:06;;;;;;;5.90;2.80;;;;;;;8.86;68.82;99300.41;4985456;28;97987;-81
2023/12/12 05:40:33;;;;;;;5.13;2.35;;;;;;;8.78;69.19;99290.25;4995185;28;97369;-85
2023/12/12 05:42:58;;;;;;;5.13;2.72;;;;;;;8.83;69.56;99304.00;5014162;28;97108;-82
2023/12/12 05:45:24;;;;;;;4.78;2.42;;;;;;;8.79;70.07;99306.81;4969857;28;97388;-83
2023/12/12 05:47:50;;;;;;;5.55;2.60;;;;;;;8.84;69.84;99321.41;4954691;28;101238;-84
2023/12/12 05:50:15;;;;;;;7.32;3.28;;;;;;;8.86;70.27;99310.88;5014800;28;97429;-84
2023/12/12 05:52:41;;;;;;;9.15;3.97;;;;;;;8.74;69.95;99290.47;4997264;28;96794;-87
2023/12/12 05:55:08;;;;;;;9.43;3.72;;;;;;;8.82;69.76;99309.31;4997414;28;97228;-82
2023/12/12 05:57:34;;;;;;;9.05;3.40;;;;;;;8.66;70.46;99319.56;4996340;28;97651;-86
2023/12/12 06:00:00;;;;;;;9.38;2.38;;;;;;;8.60;70.69;99312.81;4976724;28;101254;-84
2023/12/12 06:02:26;;;;;;;6.43;2.35;;;;;;;8.60;71.18;99317.22;4999011;28;97314;-85
2023/12/12 06:04:51;;;;;;;5.20;2.88;;;;;;;8.53;70.92;99334.94;4987325;28;96973;-84
2023/12/12 06:07:17;;;;;;;4.10;2.33;;;;;;;8.61;71.66;99330.25;4979119;28;100340;-81
2023/12/12 06:09:43;;;;;;;5.03;2.40;;;;;;;8.64;71.77;99344.97;4981812;28;97932;-79
2023/12/12 06:12:08;;;;;;;5.75;2.40;;;;;;;8.72;71.46;99342.84;4995930;28;96763;-74
2023/12/12 06:14:35;;;;;;;6.85;2.67;;;;;;;8.76;71.30;99338.38;4980596;28;96925;-78
2023/12/12 06:17:02;;;;;;;5.10;2.28;;;;;;;8.80;71.30;99356.47;4997206;28;98124;-78
2023/12/12 06:19:28;;;;;;;5.10;2.75;;;;;;;8.71;71.26;99356.84;4975987;28;101067;-78
2023/12/12 06:21:54;;;;;;;4.43;2.53;;;;;;;8.73;71.40;99356.81;4989727;28;98145;-78
2023/12/12 06:24:20;;;;;;;6.70;3.00;;;;;;;8.76;71.75;99360.13;4979393;28;97785;-78
2023/12/12 06:26:46;;;;;;;7.38;3.10;;;;;;;8.87;71.49;99371.91;4992049;28;97431;-78
2023/12/12 06:29:12;;;;;;;7.88;2.78;;;;;;;8.72;71.10;99368.16;4984838;28;101385;-78
2023/12/12 06:31:38;;;;;;;5.93;2.75;;;;;;;8.57;71.38;99351.34;4964005;28;96802;-78
2023/12/12 06:34:04;;;;;;;4.90;2.50;;;;;;;8.76;71.26;99380.22;4993353;28;97110;-77
2023/12/12 06:36:30;;;;;;;2.30;2.05;;;;;;;8.73;71.15;99383.81;4983159;28;101603;-78
2023/12/12 06:38:55;;;;;;;5.18;2.78;;;;;;;8.64;70.19;99365.88;4992977;28;98256;-83
2023/12/12 06:41:21;;;;;;;4.78;2.53;;;;;;;8.74;70.63;99387.28;4993933;28;97317;-79
2023/12/12 06:43:46;;;;;;;4.03;1.90;;;;;;;8.78;70.18;99387.06;4969299;28;96883;-77
2023/12/12 06:46:12;;;;;;;4.68;2.45;;;;;;;8.73;70.39;99393.44;4973107;28;99194;-79
2023/12/12 06:48:38;;;;;;;7.90;3.08;;;;;;;8.70;70.35;99380.47;5007488;28;97306;-81
2023/12/12 06:51:09;;;;;;;4.95;2.53;;;;;;;8.93;70.11;99393.47;4993210;28;96799;-80
2023/12/12 06:53:35;;;;;;;5.38;2.67;;;;;;;8.92;70.15;99381.28;4987179;28;97866;-76
2023/12/12 06:56:01;;;;;;;6.43;2.78;;;;;;;8.86;69.17;99384.16;4993234;28;98120;-77
2023/12/12 06:58:26;;;;;;;5.32;2.53;;;;;;;8.87;70.15;99401.53;4993085;28;99377;-77
2023/12/12 07:00:52;;;;;;;6.68;2.15;;;;;;;8.93;69.54;99401.31;4994080;28;97340;-77
2023/12/12 07:03:18;;;;;;;8.00;2.67;;;;;;;8.89;69.68;99385.78;4961639;28;97297;-77
2023/12/12 07:05:44;;;;;;;6.25;2.38;;;;;;;9.07;68.95;99401.59;5011475;28;98098;-79
2023/12/12 07:08:10;;;;;;;5.32;2.20;;;;;;;8.84;69.46;99386.84;4993412;28;97515;-77
2023/12/12 07:10:35;;;;;;;4.13;2.15;;;;;;;9.00;69.18;99394.91;4976453;28;96827;-78
2023/12/12 07:13:01;;;;;;;7.68;2.35;;;;;;;9.10;68.40;99397.13;4977058;28;96789;-78
2023/12/12 07:15:27;;;;;;;7.53;2.85;;;;;;;9.10;68.26;99404.97;4983633;28;97531;-78
2023/12/12 07:17:53;;;;;;;5.57;2.83;;;;;;;8.97;68.42;99404.66;4991285;28;98237;-82
2023/12/12 07:20:19;;;;;;;4.15;2.65;;;;;;;8.86;68.64;99399.00;4990049;28;96811;-77
2023/12/12 07:22:45;;;;;;;4.15;2.20;;;;;;;8.84;68.93;99425.22;4973355;28;96843;-77
2023/12/12 07:25:10;;;;;;;6.68;2.22;;;;;;;8.89;68.71;99425.06;4967646;28;101117;-77
2023/12/12 07:27:36;;;;;;;4.32;2.10;;;;;;;8.94;68.24;99421.31;4981756;28;100470;-77
2023/12/12 07:30:02;;;;;;;5.22;1.90;;;;;;;8.92;68.59;99433.63;4989037;28;96900;-78
2023/12/12 07:32:27;;;;;;;4.80;2.25;;;;;;;8.97;68.51;99442.13;4992907;28;97239;-79
2023/12/12 07:34:54;;;;;;;6.85;2.58;;;;;;;8.89;68.21;99432.91;4958675;28;101187;-78
2023/12/12 07:37:19;;;;;;;5.45;1.90;;;;;;;9.13;67.52;99450.19;4976638;28;101482;-78
2023/12/12 07:39:45;;;;;;;5.05;2.00;;;;;;;9.00;67.63;99454.25;4976169;28;97491;-77
2023/12/12 07:42:11;;;;;;;6.18;1.90;;;;;;;8.96;67.98;99457.91;4993808;28;96944;-79
2023/12/12 07:44:36;;;;;;;2.88;1.75;;;;;;;8.82;68.37;99448.00;4993371;28;97309;-80
2023/12/12 07:47:02;;;;;;;4.40;1.90;;;;;;;8.95;67.99;99458.81;4992664;28;101339;-78
2023/12/12 07:49:28;;;;;;;4.97;1.75;;;;;;;8.80;67.90;99455.06;4990610;28;97319;-79
2023/12/12 07:51:54;;;;;;;4.13;1.98;;;;;;;8.72;68.36;99457.97;4986128;28;97594;-78
2023/12/12 07:54:20;;;;;;;4.60;1.98;;;;;;;8.81;68.24;99475.94;4976268;28;101671;-78
2023/12/12 07:56:46;;;;;;;4.15;2.05;;;;;;;8.94;67.72;99478.06;4986701;28;98038;-78
2023/12/12 07:59:11;;;;;;;6.32;2.08;;;;;;;8.97;67.67;99467.47;4992746;28;97306;-77
2023/12/12 08:01:37;;;;;;;3.47;1.90;;;;;;;9.00;67.86;99472.56;4993358;28;96842;-81
2023/12/12 08:04:04;;;;;;;6.10;2.72;;;;;;;8.93;67.09;99473.72;4971679;28;101483;-78
2023/12/12 08:06:31;;;;;;;5.38;2.47;;;;;;;9.15;67.50;99484.19;4991357;28;97446;-78
2023/12/12 08:08:56;;;;;;;5.95;2.47;;;;;;;8.81;67.60;99457.63;4958870;28;97462;-77
2023/12/12 08:11:24;;;;;;;5.20;2.20;;;;;;;8.93;67.87;99481.56;4982913;28;97513;-78
2023/12/12 08:13:50;;;;;;;13.50;3.17;;;;;;;8.83;67.47;99458.41;4985212;28;97804;-78
2023/12/12 08:16:16;;;;;;;6.15;2.30;;;;;;;8.96;67.26;99478.84;4971102;28;101566;-78
2023/12/12 08:18:42;;;;;;;7.72;2.63;;;;;;;9.03;67.57;99469.84;5005617;28;97055;-77
2023/12/12 08:21:09;;;;;;;5.95;2.47;;;;;;;8.84;67.95;99467.97;4975314;28;96824;-80
2023/12/12 08:23:37;;;;;;;4.68;2.03;;;;;;;9.02;67.24;99494.31;4977849;28;101059;-79
2023/12/12 08:26:05;;;;;;;8.50;2.70;;;;;;;9.07;67.00;99487.09;4974669;28;101665;-77
2023/12/12 08:28:30;;;;;;;12.23;2.50;;;;;;;8.81;67.36;99473.34;4963892;28;96875;-77
2023/12/12 08:30:56;;;;;;;4.88;2.08;;;;;;;8.90;67.38;99484.31;4996371;28;97268;-80
2023/12/12 08:33:22;;;;;;;5.43;1.88;;;;;;;8.87;67.54;99455.66;4980395;28;101197;-77
2023/12/12 08:35:47;;;;;;;7.07;2.17;;;;;;;9.06;66.95;99477.56;4978530;28;98398;-77
2023/12/12 08:38:13;;;;;;;6.65;2.20;;;;;;;9.16;67.04;99478.91;4996076;28;97384;-82
2023/12/12 08:40:38;;;;;;;7.30;2.08;;;;;;;9.15;66.85;99487.66;4975612;28;96799;-82
2023/12/12 08:43:04;;;;;;;4.47;1.58;;;;;;;9.06;66.74;99488.88;4998040;28;97405;-77
2023/12/12 08:45:29;;;;;;;4.53;1.70;;;;;;;9.21;66.71;99492.63;4998167;28;99100;-77
2023/12/12 08:47:55;;;;;;;4.72;1.60;;;;;;;9.17;66.71;99471.88;4997803;28;97032;-77
2023/12/12 08:50:20;;;;;;;4.30;1.80;;;;;;;9.27;66.01;99475.81;4977093;28;99996;-77
2023/12/12 08:52:47;;;;;;;5.13;2.10;;;;;;;9.38;66.18;99493.69;4979866;28;100752;-79
2023/12/12 08:55:13;;;;;;;6.63;1.85;;;;;;;9.32;66.23;99492.19;4963787;28;101521;-77
2023/12/12 08:57:39;;;;;;;4.55;1.70;;;;;;;9.26;65.98;99485.44;4992212;28;96858;-77
2023/12/12 09:00:08;;;;;;;3.40;1.60;;;;;;;9.48;65.79;99495.00;4976883;28;97358;-80
2023/12/12 09:02:33;;;;;;;6.07;1.88;;;;;;;9.44;65.76;99486.44;4994194;28;97540;-77
2023/12/12 09:04:59;;;;;;;6.35;1.88;;;;;;;9.43;65.91;99481.28;4992862;28;97394;-78
2023/12/12 09:07:24;;;;;;;6.90;2.08;;;;;;;9.44;65.41;99475.09;4979449;28;97332;-77
2023/12/12 09:09:50;;;;;;;5.68;2.65;;;;;;;9.88;73.60;99481.00;4996552;28;96777;-78
2023/12/12 09:12:17;;;;;;;6.00;2.38;;;;;;;10.13;72.25;99483.41;4995790;28;97497;-77
2023/12/12 09:14:42;;;;;;;5.28;2.45;;;;;;;9.94;66.79;99466.78;4993620;28;99365;-78
2023/12/12 09:17:08;;;;;;;7.07;2.10;;;;;;;10.07;65.50;99483.69;4977118;28;97030;-77
2023/12/12 09:19:33;;;;;;;4.18;2.17;;;;;;;10.04;65.28;99481.19;4993282;28;98139;-78
2023/12/12 09:21:59;;;;;;;4.80;2.15;;;;;;;9.94;65.16;99465.00;5013831;28;97993;-79
2023/12/12 09:24:24;;;;;;;3.70;2.15;;;;;;;10.07;64.27;99480.22;4996832;28;97335;-78
2023/12/12 09:26:50;;;;;;;5.80;2.47;;;;;;;10.05;64.18;99482.03;4996267;28;97008;-78
2023/12/12 09:29:16;;;;;;;8.77;2.72;;;;;;;10.01;63.96;99486.59;4996218;28;97908;-77
2023/12/12 09:31:41;;;;;;;5.65;3.22;;;;;;;10.05;64.04;99475.03;4979312;28;97430;-79
2023/12/12 09:34:07;;;;;;;8.77;3.85;;;;;;;10.10;63.86;99477.44;4996384;28;97495;-78
2023/12/12 09:36:33;;;;;;;6.32;3.08;;;;;;;10.11;63.57;99487.84;4978296;28;97518;-78
2023/12/12 09:38:58;;;;;;;7.72;2.58;;;;;;;10.04;63.64;99488.22;4994001;28;96854;-78
2023/12/12 09:41:24;;;;;;;5.80;2.35;;;;;;;10.15;63.69;99486.81;4996027;28;97526;-79
2023/12/12 09:43:50;;;;;;;10.45;2.90;;;;;;;10.12;63.85;99475.59;4994256;28;101087;-78
2023/12/12 09:46:17;;;;;;;5.28;2.72;;;;;;;10.04;63.43;99475.09;4979671;28;96965;-79
2023/12/12 09:48:44;;;;;;;7.60;3.03;;;;;;;10.07;63.14;99472.34;4995449;28;97363;-78
2023/12/12 09:51:12;;;;;;;9.07;2.50;;;;;;;10.18;63.72;99480.56;4995715;28;97597;-78
2023/12/12 09:53:40;;;;;;;4.80;2.13;;;;;;;10.02;63.48;99451.56;4995699;28;97653;-78
2023/12/12 09:56:07;;;;;;;5.40;2.50;;;;;;;10.05;63.37;99467.16;4997019;28;99274;-79
2023/12/12 09:58:33;;;;;;;11.63;3.00;;;;;;;9.98;62.75;99486.72;4977549;28;96996;-77
2023/12/12 10:01:01;;;;;;;6.00;2.90;;;;;;;10.04;62.90;99468.09;4978649;28;97534;-77
2023/12/12 10:03:26;;;;;;;7.78;2.40;;;;;;;10.25;63.03;99478.53;5011096;28;97366;-78
2023/12/12 10:05:54;;;;;;;6.22;2.70;;;;;;;10.37;62.96;99465.69;5011280;28;97275;-77
2023/12/12 10:08:20;;;;;;;7.95;2.33;;;;;;;10.49;62.72;99469.53;4975874;28;97300;-80
2023/12/12 10:10:46;;;;;;;4.70;2.10;;;;;;;10.61;62.40;99460.22;5012481;28;98738;-77
2023/12/12 10:13:11;;;;;;;7.72;2.88;;;;;;;10.63;61.69;99458.38;4993855;28;97680;-78
2023/12/12 10:15:37;;;;;;;3.85;1.92;;;;;;;10.46;61.22;99463.56;5012299;28;97202;-76
2023/12/12 10:18:02;;;;;;;9.52;2.63;;;;;;;10.45;61.46;99464.50;4993635;28;97404;-78
2023/12/12 10:20:30;;;;;;;6.75;2.28;;;;;;;10.69;60.84;99463.34;4993823;28;99175;-77
2023/12/12 10:23:00;;;;;;;7.50;2.45;;;;;;;10.84;60.58;99467.00;4991700;28;97821;-77
2023/12/12 10:25:28;;;;;;;7.72;2.05;;;;;;;10.86;60.48;99468.63;4989676;28;96830;-79
2023/12/12 10:27:54;;;;;;;4.95;1.92;;;;;;;10.96;59.88;99449.78;4992837;28;97447;-77
2023/12/12 10:30:23;;;;;;;7.43;2.97;;;;;;;11.08;59.35;99457.94;4989155;28;98022;-78
2023/12/12 10:32:51;;;;;;;5.95;1.77;;;;;;;10.89;58.70;99457.13;4992251;28;101124;-77
2023/12/12 10:35:17;;;;;;;3.33;1.80;;;;;;;10.87;59.15;99459.81;4993809;28;96852;-80
2023/12/12 10:37:43;;;;;;;4.55;1.73;;;;;;;10.88;59.07;99472.03;4976828;28;97619;-77
2023/12/12 10:40:23;;;;;;;5.30;2.00;;;;;;;10.85;59.57;99487.94;4989273;28;101172;-78
2023/12/12 10:42:49;;;;;;;5.75;2.03;;;;;;;10.66;59.46;99455.59;4976672;28;101261;-78
2023/12/12 10:45:15;;;;;;;4.05;1.83;;;;;;;10.63;59.71;99472.34;4994521;28;97232;-76
2023/12/12 10:47:44;;;;;;;4.82;2.55;;;;;;;10.61;60.03;99487.31;4995061;28;96871;-77
2023/12/12 10:50:13;;;;;;;5.55;2.65;;;;;;;10.46;59.82;99476.69;4994362;28;98572;-77
2023/12/12 10:52:39;;;;;;;5.82;2.40;;;;;;;10.42;59.70;99466.34;4995196;28;99008;-77
2023/12/12 10:55:06;;;;;;;4.95;2.15;;;;;;;10.39;59.18;99471.75;5014704;28;96695;-77
2023/12/12 10:57:32;;;;;;;4.47;1.88;;;;;;;10.53;59.43;99478.97;4979616;28;97124;-78
2023/12/12 10:59:58;;;;;;;5.57;2.63;;;;;;;10.59;58.91;99483.09;4952810;28;100860;-77
2023/12/12 11:02:23;;;;;;;5.57;2.05;;;;;;;10.64;58.78;99479.28;4973503;28;97594;-79
2023/12/12 11:04:49;;;;;;;6.47;2.63;;;;;;;10.58;58.73;99486.63;4994571;28;97676;-77
2023/12/12 11:07:15;;;;;;;11.70;1.98;;;;;;;10.72;58.69;99485.97;4981692;28;96847;-77
2023/12/12 11:09:41;;;;;;;8.10;2.00;;;;;;;10.72;58.64;99489.44;4990217;28;97529;-77
2023/12/12 11:12:07;;;;;;;9.80;2.65;;;;;;;10.68;58.64;99468.69;4981214;28;99436;-81
2023/12/12 11:14:33;;;;;;;10.52;2.15;;;;;;;10.86;58.30;99489.63;5012331;28;97580;-87
2023/12/12 11:16:59;;;;;;;5.35;1.98;;;;;;;10.71;57.92;99481.66;4979050;28;96929;-86
2023/12/12 11:19:26;;;;;;;4.57;2.03;;;;;;;10.68;57.80;99463.44;4976288;28;97255;-85
2023/12/12 11:21:51;;;;;;;4.88;1.80;;;;;;;10.75;58.32;99486.66;4995200;28;98692;-80
2023/12/12 11:24:18;;;;;;;6.93;1.85;;;;;;;10.48;58.23;99480.97;4974949;28;96878;-83
2023/12/12 11:26:46;;;;;;;4.05;1.73;;;;;;;10.62;58.37;99486.41;4994826;28;96914;-82
2023/12/12 11:29:15;;;;;;;5.75;2.10;;;;;;;10.54;58.22;99478.03;4989513;28;99780;-82
2023/12/12 11:31:57;;;;;;;4.82;2.20;;;;;;;10.42;58.34;99481.25;4994647;28;98428;-84